Time;durP1;ratioP1;P1;durP2;ratioP2;P2;SDS_P1;SDS_P2;PMS_P1;PMS_P2;Temp;Humidity;BMP_temperature;BMP_pressure;BME280_temperature;BME280_humidity;BME280_pressure;Samples;Min_cycle;Max_cycle;Signal;HPM_P1;HPM_P2
2021/09/29 00:00:24;;;;;;;8.07;4.47;;;;;;;12.95;100.00;101573.00;5263273;28;20143;-67
2021/09/29 00:02:55;;;;;;;10.68;4.60;;;;;;;12.94;100.00;101566.06;5268201;28;20036;-67
2021/09/29 00:05:26;;;;;;;6.30;4.63;;;;;;;12.89;100.00;101561.19;5267224;28;20039;-67
2021/09/29 00:07:58;;;;;;;9.90;4.68;;;;;;;12.87;100.00;101552.59;5265386;28;20039;-67
2021/09/29 00:10:29;;;;;;;9.90;4.70;;;;;;;12.93;100.00;101560.94;5265435;28;20017;-67
2021/09/29 00:13:00;;;;;;;7.40;3.90;;;;;;;12.88;100.00;101549.00;5266408;28;20112;-67
2021/09/29 00:15:32;;;;;;;6.93;4.30;;;;;;;12.86;100.00;101548.28;5266834;28;20025;-67
2021/09/29 00:18:04;;;;;;;10.23;4.70;;;;;;;12.83;100.00;101547.72;5265749;28;20064;-67
2021/09/29 00:20:35;;;;;;;9.00;4.57;;;;;;;12.82;100.00;101544.25;5265176;28;20148;-67
2021/09/29 00:23:06;;;;;;;9.27;4.50;;;;;;;12.83;100.00;101543.28;5265428;28;20074;-67
2021/09/29 00:25:37;;;;;;;8.90;4.72;;;;;;;12.81;100.00;101539.13;5265468;28;20029;-67
2021/09/29 00:28:09;;;;;;;10.40;4.88;;;;;;;12.79;100.00;101536.63;5265082;28;20029;-67
2021/09/29 00:31:41;;;;;;;8.57;4.20;;;;;;;12.76;100.00;101523.72;5266997;28;20025;-67
2021/09/29 00:33:46;;;;;;;9.90;4.95;;;;;;;12.74;100.00;101520.41;5257717;28;20045;-66
2021/09/29 00:36:17;;;;;;;7.60;4.30;;;;;;;12.74;100.00;101520.41;5264035;28;20032;-67
2021/09/29 00:38:48;;;;;;;10.88;4.70;;;;;;;12.64;100.00;101503.72;5260987;28;20280;-67
2021/09/29 00:41:20;;;;;;;8.55;4.50;;;;;;;12.70;100.00;101513.72;5266138;28;20020;-67
2021/09/29 00:43:51;;;;;;;7.93;4.35;;;;;;;12.68;100.00;101505.13;5267348;28;20017;-66
2021/09/29 00:46:22;;;;;;;10.32;4.47;;;;;;;12.68;100.00;101502.50;5266387;28;20086;-66
2021/09/29 00:48:54;;;;;;;10.27;5.00;;;;;;;12.63;100.00;101495.00;5265334;28;20077;-66
2021/09/29 00:51:25;;;;;;;6.80;3.97;;;;;;;12.64;100.00;101501.09;5263348;28;20067;-67
2021/09/29 00:53:57;;;;;;;9.07;4.30;;;;;;;12.60;100.00;101489.16;5269154;28;20674;-66
2021/09/29 00:56:28;;;;;;;7.47;4.28;;;;;;;12.61;100.00;101488.19;5266347;28;20035;-67
2021/09/29 00:59:00;;;;;;;9.75;5.35;;;;;;;12.57;100.00;101471.84;5264750;28;20024;-67
2021/09/29 01:01:32;;;;;;;7.03;3.90;;;;;;;12.54;100.00;101471.25;5264898;28;20465;-67
2021/09/29 01:04:03;;;;;;;7.47;4.40;;;;;;;12.52;100.00;101467.94;5264971;28;20040;-66
2021/09/29 01:06:38;;;;;;;8.10;4.40;;;;;;;12.54;100.00;101471.25;5263321;28;20032;-66
2021/09/29 01:09:53;;;;;;;7.95;4.53;;;;;;;12.69;100.00;101464.75;5263762;28;20108;-67
2021/09/29 01:12:49;;;;;;;8.85;4.45;;;;;;;12.62;100.00;101460.97;5182052;28;20574;-67
2021/09/29 01:15:27;;;;;;;6.45;4.32;;;;;;;12.52;100.00;101460.88;5265350;28;20078;-67
2021/09/29 01:18:03;;;;;;;10.38;5.00;;;;;;;12.51;100.00;101461.03;5261944;28;20029;-67
2021/09/29 01:20:41;;;;;;;8.52;4.55;;;;;;;12.49;100.00;101448.00;5264284;28;20170;-66
2021/09/29 01:23:25;;;;;;;10.43;4.50;;;;;;;12.53;100.00;101432.81;5264404;28;20029;-67
2021/09/29 01:25:56;;;;;;;10.30;4.50;;;;;;;12.44;100.00;101437.03;5263947;28;20059;-67
2021/09/29 01:28:29;;;;;;;8.23;4.27;;;;;;;12.43;100.00;101416.16;5264198;28;20067;-66
2021/09/29 01:31:01;;;;;;;;;;;;;;;12.71;100.00;101422.53;5262585;28;20899;-66
2021/09/29 01:33:34;;;;;;;7.53;4.55;;;;;;;12.41;100.00;101429.41;5262727;28;19913;-67
2021/09/29 01:36:06;;;;;;;8.63;4.15;;;;;;;12.40;100.00;101422.50;5265622;28;20707;-66
2021/09/29 01:38:40;;;;;;;5.55;3.92;;;;;;;12.37;100.00;101425.38;5264570;28;20048;-67
2021/09/29 01:41:11;;;;;;;6.38;3.30;;;;;;;12.40;100.00;101428.56;5266916;28;20016;-67
2021/09/29 01:43:43;;;;;;;7.88;4.22;;;;;;;12.34;100.00;101423.00;5264418;28;20093;-66
2021/09/29 01:46:14;;;;;;;6.18;3.85;;;;;;;12.35;100.00;101414.13;5264758;28;20351;-66
2021/09/29 01:49:04;;;;;;;10.95;4.13;;;;;;;12.38;100.00;101419.97;5263963;28;20021;-66
2021/09/29 01:51:43;;;;;;;7.13;4.00;;;;;;;12.29;100.00;101405.00;5259797;28;20043;-66
2021/09/29 01:54:17;;;;;;;6.80;4.35;;;;;;;12.26;100.00;101407.03;5262929;28;20029;-66
2021/09/29 01:56:49;;;;;;;7.32;4.00;;;;;;;12.23;100.00;101396.78;5260742;28;20027;-66
2021/09/29 01:59:22;;;;;;;7.30;4.07;;;;;;;12.25;100.00;101393.06;5262204;28;20029;-66
2021/09/29 02:01:54;;;;;;;7.60;4.40;;;;;;;12.21;100.00;101398.72;5263765;28;20041;-67
2021/09/29 02:04:25;;;;;;;9.43;3.50;;;;;;;12.24;100.00;101385.31;5263083;28;20505;-67
2021/09/29 02:06:57;;;;;;;7.60;4.18;;;;;;;12.21;100.00;101380.31;5263606;28;20028;-66
2021/09/29 02:09:28;;;;;;;8.73;4.00;;;;;;;12.22;100.00;101372.31;5260088;28;20052;-68
2021/09/29 02:11:59;;;;;;;9.18;4.13;;;;;;;12.20;100.00;101369.00;5263978;28;20020;-66
2021/09/29 02:14:31;;;;;;;6.90;3.55;;;;;;;12.21;100.00;101362.75;5264092;28;20116;-66
2021/09/29 02:17:03;;;;;;;7.35;3.58;;;;;;;12.22;100.00;101367.03;5264003;28;20028;-66
2021/09/29 02:19:35;;;;;;;8.15;3.42;;;;;;;12.22;100.00;101366.22;5264216;28;20037;-66
2021/09/29 02:22:06;;;;;;;7.10;3.93;;;;;;;12.24;100.00;101354.63;5265404;28;20080;-66
2021/09/29 02:24:38;;;;;;;7.80;3.75;;;;;;;12.24;100.00;101354.63;5264688;28;20757;-67
2021/09/29 02:27:09;;;;;;;7.18;3.60;;;;;;;12.24;100.00;101354.63;5264739;28;20032;-67
2021/09/29 02:29:41;;;;;;;7.22;3.67;;;;;;;12.24;100.00;101344.13;5264787;28;20024;-66
2021/09/29 02:32:12;;;;;;;7.75;3.83;;;;;;;12.23;100.00;101345.06;5261651;28;20032;-66
2021/09/29 02:34:44;;;;;;;6.75;3.38;;;;;;;12.22;100.00;101342.56;5264467;28;20017;-66
2021/09/29 02:37:15;;;;;;;7.43;3.60;;;;;;;12.29;100.00;101344.56;5264626;28;20028;-66
2021/09/29 02:39:47;;;;;;;7.13;3.53;;;;;;;12.28;100.00;101342.06;5263007;28;20099;-67
2021/09/29 02:42:18;;;;;;;7.10;3.42;;;;;;;12.27;100.00;101337.75;5265505;28;20203;-65
2021/09/29 02:44:49;;;;;;;6.43;3.42;;;;;;;12.29;100.00;101334.06;5263112;28;20025;-66
2021/09/29 02:47:21;;;;;;;5.97;3.43;;;;;;;12.30;100.00;101333.09;5264185;28;20052;-66
2021/09/29 02:49:53;;;;;;;7.72;3.42;;;;;;;12.33;100.00;101338.09;5266335;28;20267;-66
2021/09/29 02:52:24;;;;;;;9.30;4.00;;;;;;;12.35;100.00;101332.69;5268431;28;20029;-67
2021/09/29 02:54:56;;;;;;;6.95;3.80;;;;;;;12.36;100.00;101326.50;5270530;28;20311;-66
2021/09/29 02:57:27;;;;;;;9.95;3.83;;;;;;;12.40;100.00;101327.91;5265914;28;20723;-67
2021/09/29 02:59:58;;;;;;;7.15;3.35;;;;;;;12.44;100.00;101321.41;5269083;28;20020;-67
2021/09/29 03:02:29;;;;;;;12.55;4.28;;;;;;;12.46;100.00;101322.09;5268866;28;20606;-66
2021/09/29 03:05:01;;;;;;;5.88;3.50;;;;;;;12.47;100.00;101315.91;5269065;28;20686;-67
2021/09/29 03:07:32;;;;;;;7.90;3.78;;;;;;;12.48;100.00;101314.09;5266393;28;20363;-67
2021/09/29 03:10:05;;;;;;;9.50;3.65;;;;;;;12.48;100.00;101320.19;5268397;28;20040;-66
2021/09/29 03:12:36;;;;;;;5.88;3.80;;;;;;;12.47;100.00;101308.03;5268786;28;20481;-66
2021/09/29 03:15:08;;;;;;;7.75;3.22;;;;;;;12.50;100.00;101305.13;5269090;28;20039;-66
2021/09/29 03:17:39;;;;;;;8.38;3.45;;;;;;;12.51;100.00;101303.34;5267566;28;20444;-66
2021/09/29 03:20:11;;;;;;;8.25;3.35;;;;;;;12.51;100.00;101292.81;5266127;28;20021;-66
2021/09/29 03:22:42;;;;;;;6.57;3.08;;;;;;;12.52;100.00;101297.94;5269069;28;20035;-66
2021/09/29 03:25:16;;;;;;;8.43;3.72;;;;;;;12.55;100.00;101296.84;5266675;28;20025;-66
2021/09/29 03:27:48;;;;;;;8.52;3.50;;;;;;;12.55;100.00;101296.84;5263776;28;20032;-68
2021/09/29 03:30:19;;;;;;;5.97;3.13;;;;;;;12.53;100.00;101296.13;5270078;28;20043;-67
2021/09/29 03:32:51;;;;;;;6.70;4.03;;;;;;;12.51;100.00;101291.03;5265578;28;20032;-67
2021/09/29 03:35:25;;;;;;;8.70;3.42;;;;;;;12.50;100.00;101288.50;5267501;28;20029;-66
2021/09/29 03:37:56;;;;;;;8.85;3.33;;;;;;;12.48;100.00;101286.03;5266641;28;20028;-67
2021/09/29 03:40:27;;;;;;;6.07;2.67;;;;;;;12.49;100.00;101289.47;5266723;28;20067;-66
2021/09/29 03:42:59;;;;;;;7.03;3.00;;;;;;;12.47;100.00;101286.16;5266954;28;20035;-67
2021/09/29 03:45:30;;;;;;;6.85;3.13;;;;;;;12.43;100.00;101269.81;5264798;28;20024;-65
2021/09/29 03:48:02;;;;;;;6.70;3.00;;;;;;;12.49;100.00;101273.72;5265485;28;20444;-66
2021/09/29 03:50:33;;;;;;;7.28;3.00;;;;;;;12.48;100.00;101272.88;5266837;28;20027;-66
2021/09/29 03:53:04;;;;;;;4.60;2.65;;;;;;;12.52;100.00;101270.81;5267657;28;20479;-67
2021/09/29 03:55:36;;;;;;;6.22;3.22;;;;;;;12.53;100.00;101275.09;5267781;28;20492;-66
2021/09/29 03:58:07;;;;;;;7.28;3.00;;;;;;;12.55;100.00;101273.19;5266009;28;20028;-66
2021/09/29 04:00:38;;;;;;;7.63;2.90;;;;;;;12.57;100.00;101272.06;5262623;28;20142;-66
2021/09/29 04:03:11;;;;;;;8.25;2.90;;;;;;;12.60;100.00;101273.63;5265876;28;20104;-66
2021/09/29 04:05:42;;;;;;;7.25;2.97;;;;;;;12.61;100.00;101272.66;5265787;28;20051;-67
2021/09/29 04:08:14;;;;;;;7.10;3.00;;;;;;;12.62;100.00;101271.69;5266655;28;20028;-66
2021/09/29 04:10:46;;;;;;;8.87;2.90;;;;;;;12.63;100.00;101270.72;5256503;28;20027;-66
2021/09/29 04:13:17;;;;;;;5.20;2.55;;;;;;;12.61;100.00;101268.25;5263912;28;20466;-66
2021/09/29 04:15:49;;;;;;;7.85;2.88;;;;;;;12.62;100.00;101275.16;5267987;28;20096;-66
2021/09/29 04:18:20;;;;;;;7.50;2.60;;;;;;;12.61;100.00;101267.38;5266856;28;20055;-66
2021/09/29 04:20:52;;;;;;;7.57;2.88;;;;;;;12.55;100.00;101257.44;5262295;28;20025;-66
2021/09/29 04:23:23;;;;;;;4.78;2.40;;;;;;;12.59;100.00;101270.16;5267553;28;20048;-66
2021/09/29 04:25:55;;;;;;;6.53;2.50;;;;;;;12.58;100.00;101263.25;5264507;28;20056;-66
2021/09/29 04:28:26;;;;;;;10.27;2.92;;;;;;;12.57;100.00;101266.81;5266574;28;20025;-67
2021/09/29 04:30:58;;;;;;;9.30;2.95;;;;;;;12.55;100.00;101267.94;5267141;28;20064;-66
2021/09/29 04:33:29;;;;;;;8.98;2.75;;;;;;;12.55;100.00;101268.75;5265445;28;20035;-66
2021/09/29 04:36:01;;;;;;;8.27;2.65;;;;;;;12.53;100.00;101262.78;5264702;28;20020;-65
2021/09/29 04:38:33;;;;;;;5.57;2.58;;;;;;;12.55;100.00;101267.94;5264479;28;20025;-66
2021/09/29 04:41:04;;;;;;;6.88;2.45;;;;;;;12.54;100.00;101258.38;5266462;28;20531;-66
2021/09/29 04:43:36;;;;;;;8.23;3.17;;;;;;;12.53;100.00;101260.16;5267409;28;20401;-66
2021/09/29 04:46:07;;;;;;;10.13;3.00;;;;;;;12.53;100.00;101264.59;5266061;28;20066;-66
2021/09/29 04:48:38;;;;;;;7.57;2.75;;;;;;;12.54;100.00;101261.00;5261760;28;20056;-66
2021/09/29 04:51:09;;;;;;;7.68;2.42;;;;;;;12.54;100.00;101253.09;5264689;28;20473;-67
2021/09/29 04:53:41;;;;;;;5.68;2.50;;;;;;;12.54;100.00;101250.47;5267106;28;20425;-67
2021/09/29 04:56:12;;;;;;;7.05;3.17;;;;;;;12.52;100.00;101249.81;5264348;28;20031;-66
2021/09/29 04:58:43;;;;;;;5.78;2.40;;;;;;;12.52;100.00;101244.53;5262418;28;20112;-67
2021/09/29 05:01:15;;;;;;;8.25;2.58;;;;;;;12.51;100.00;101241.09;5264799;28;20032;-67
2021/09/29 05:03:46;;;;;;;6.22;2.60;;;;;;;12.52;100.00;101250.63;5264908;28;20099;-66
2021/09/29 05:06:18;;;;;;;5.22;2.67;;;;;;;12.51;100.00;101250.78;5264222;28;20061;-66
2021/09/29 05:08:50;;;;;;;6.13;2.90;;;;;;;12.49;100.00;101245.63;5265205;28;20067;-66
2021/09/29 05:11:33;;;;;;;6.78;2.50;;;;;;;12.53;100.00;101240.94;5256658;28;20044;-66
2021/09/29 05:14:05;;;;;;;6.05;2.63;;;;;;;12.48;100.00;101243.97;5262149;28;20039;-66
2021/09/29 05:16:36;;;;;;;9.90;2.80;;;;;;;12.47;100.00;101241.50;5259083;28;20029;-66
2021/09/29 05:19:08;;;;;;;6.63;3.15;;;;;;;12.44;100.00;101241.75;5254366;28;20043;-66
2021/09/29 05:21:39;;;;;;;5.25;2.58;;;;;;;12.44;100.00;101233.88;5260194;28;20051;-67
2021/09/29 05:24:10;;;;;;;6.10;2.58;;;;;;;12.43;100.00;101234.84;5266424;28;20031;-66
2021/09/29 05:26:42;;;;;;;7.88;2.85;;;;;;;12.38;100.00;101236.03;5264336;28;20553;-67
2021/09/29 05:29:17;;;;;;;5.78;2.65;;;;;;;12.44;100.00;101237.31;5263195;28;20108;-68
2021/09/29 05:31:48;;;;;;;6.63;2.85;;;;;;;12.38;100.00;101229.97;5263609;28;20044;-68
2021/09/29 05:34:20;;;;;;;7.40;3.10;;;;;;;12.37;100.00;101239.63;5264031;28;20023;-66
2021/09/29 05:36:51;;;;;;;5.68;2.80;;;;;;;12.34;100.00;101237.28;5264821;28;20092;-67
2021/09/29 05:39:23;;;;;;;5.88;2.60;;;;;;;12.33;100.00;101233.00;5261692;28;20676;-68
2021/09/29 05:41:54;;;;;;;8.43;2.80;;;;;;;12.34;100.00;101226.75;5265102;28;20025;-68
2021/09/29 05:44:26;;;;;;;6.85;2.55;;;;;;;12.31;100.00;101221.78;5263829;28;20029;-68
2021/09/29 05:46:57;;;;;;;8.02;2.85;;;;;;;12.33;100.00;101234.78;5264429;28;20051;-68
2021/09/29 05:49:29;;;;;;;5.78;2.97;;;;;;;12.34;100.00;101231.19;5262627;28;20060;-68
2021/09/29 05:52:00;;;;;;;7.53;2.85;;;;;;;12.36;100.00;101232.72;5265408;28;20021;-68
2021/09/29 05:54:32;;;;;;;8.00;2.75;;;;;;;12.36;100.00;101237.97;5264857;28;20033;-68
2021/09/29 05:57:04;;;;;;;5.70;2.95;;;;;;;12.37;100.00;101246.69;5263532;28;20032;-68
2021/09/29 05:59:35;;;;;;;8.98;3.00;;;;;;;12.38;100.00;101236.03;5255918;28;20486;-68
2021/09/29 06:02:07;;;;;;;6.00;2.95;;;;;;;12.40;100.00;101234.13;5265585;28;20056;-67
2021/09/29 06:04:40;;;;;;;9.57;2.83;;;;;;;12.39;100.00;101229.84;5262034;28;20021;-66
2021/09/29 06:07:15;;;;;;;7.70;2.97;;;;;;;12.38;100.00;101222.91;5262557;28;20063;-67
2021/09/29 06:09:46;;;;;;;7.10;2.83;;;;;;;12.44;100.00;101233.88;5256916;28;20029;-68
2021/09/29 06:12:17;;;;;;;11.10;3.13;;;;;;;12.44;100.00;101231.25;5264270;28;20024;-67
2021/09/29 06:14:50;;;;;;;7.05;3.35;;;;;;;12.45;100.00;101227.63;5263073;28;20009;-67
2021/09/29 06:17:36;;;;;;;7.72;2.53;;;;;;;12.47;100.00;101233.59;5263468;28;20028;-67
2021/09/29 06:20:08;;;;;;;6.22;3.40;;;;;;;12.49;100.00;101229.88;5263104;28;20024;-67
2021/09/29 06:22:39;;;;;;;11.15;3.22;;;;;;;12.51;100.00;101235.00;5265108;28;20029;-66
2021/09/29 06:25:11;;;;;;;9.75;3.10;;;;;;;12.51;100.00;101229.75;5267147;28;20027;-67
2021/09/29 06:27:43;;;;;;;7.43;3.28;;;;;;;12.50;100.00;101228.06;5267417;28;20036;-67
2021/09/29 06:30:15;;;;;;;6.93;2.97;;;;;;;12.51;100.00;101230.56;5267778;28;20027;-67
2021/09/29 06:32:46;;;;;;;7.07;2.97;;;;;;;12.50;100.00;101222.81;5265970;28;20526;-67
2021/09/29 06:35:17;;;;;;;7.75;3.13;;;;;;;12.49;100.00;101221.16;5268486;28;20052;-66
2021/09/29 06:37:49;;;;;;;11.48;3.60;;;;;;;12.50;100.00;101228.91;5267601;28;20032;-67
2021/09/29 06:40:20;;;;;;;7.60;3.33;;;;;;;12.50;100.00;101220.19;5265535;28;20107;-68
2021/09/29 06:42:52;;;;;;;7.28;2.75;;;;;;;12.52;100.00;101223.50;5268779;28;20816;-68
2021/09/29 06:45:23;;;;;;;7.82;3.35;;;;;;;12.52;100.00;101223.50;5266657;28;20021;-67
2021/09/29 06:47:54;;;;;;;7.18;2.95;;;;;;;12.49;100.00;101219.34;5266724;28;20036;-68
2021/09/29 06:50:25;;;;;;;9.13;3.40;;;;;;;12.49;100.00;101226.41;5265265;28;20448;-68
2021/09/29 06:52:57;;;;;;;7.50;3.08;;;;;;;12.48;100.00;101230.84;5267573;28;20414;-68
2021/09/29 06:55:29;;;;;;;7.82;3.20;;;;;;;12.48;100.00;101222.13;5265082;28;20025;-69
2021/09/29 06:58:00;;;;;;;5.93;3.20;;;;;;;12.49;100.00;101223.78;5269403;28;20303;-68
2021/09/29 07:00:31;;;;;;;6.63;3.15;;;;;;;12.48;100.00;101225.56;5266262;28;20444;-67
2021/09/29 07:03:03;;;;;;;7.88;3.05;;;;;;;12.50;100.00;101222.81;5265389;28;20082;-68
2021/09/29 07:05:35;;;;;;;7.65;2.88;;;;;;;12.51;100.00;101221.88;5265981;28;20131;-68
2021/09/29 07:08:06;;;;;;;6.78;2.78;;;;;;;12.51;100.00;101224.50;5267856;28;20372;-69
2021/09/29 07:10:38;;;;;;;7.72;3.25;;;;;;;12.50;100.00;101231.53;5266703;28;20031;-68
2021/09/29 07:13:10;;;;;;;8.70;3.63;;;;;;;12.50;100.00;101228.91;5266507;28;20050;-67
2021/09/29 07:15:41;;;;;;;5.80;2.35;;;;;;;12.53;100.00;101228.63;5266429;28;20036;-68
2021/09/29 07:18:14;;;;;;;5.80;2.55;;;;;;;12.52;100.00;101226.16;5266065;28;20403;-68
2021/09/29 07:20:45;;;;;;;8.35;2.80;;;;;;;12.56;100.00;101233.63;5269113;28;20024;-67
2021/09/29 07:23:16;;;;;;;7.15;2.70;;;;;;;12.55;100.00;101231.13;5266152;28;20028;-68
2021/09/29 07:25:48;;;;;;;7.00;3.28;;;;;;;12.57;100.00;101224.75;5266277;28;20124;-68
2021/09/29 07:28:19;;;;;;;5.40;2.72;;;;;;;12.62;100.00;101227.00;5264389;28;20028;-68
2021/09/29 07:30:52;;;;;;;5.90;2.45;;;;;;;12.64;100.00;101219.81;5265693;28;20048;-67
2021/09/29 07:33:23;;;;;;;4.43;2.20;;;;;;;12.67;100.00;101230.06;5267423;28;20551;-68
2021/09/29 07:35:55;;;;;;;4.32;2.05;;;;;;;12.72;100.00;101222.59;5263025;28;20025;-68
2021/09/29 07:38:28;;;;;;;4.68;2.20;;;;;;;12.71;100.00;101231.47;5266413;28;20455;-68
2021/09/29 07:40:59;;;;;;;4.50;2.25;;;;;;;12.71;100.00;101243.78;5266734;28;20027;-68
2021/09/29 07:43:31;;;;;;;4.72;2.38;;;;;;;12.69;100.00;101258.84;5269224;28;20534;-67
2021/09/29 07:46:03;;;;;;;5.90;2.13;;;;;;;12.71;100.00;101249.03;5266344;28;20049;-68
2021/09/29 07:48:34;;;;;;;4.95;2.10;;;;;;;12.71;100.00;101260.38;5263549;28;20025;-68
2021/09/29 07:51:05;;;;;;;7.85;1.83;;;;;;;12.74;100.00;101262.75;5265691;28;20021;-67
2021/09/29 07:53:37;;;;;;;5.97;2.08;;;;;;;12.71;100.00;101273.53;5266237;28;20088;-67
2021/09/29 07:56:08;;;;;;;5.35;2.15;;;;;;;12.76;100.00;101268.69;5266923;28;20028;-68
2021/09/29 07:58:40;;;;;;;4.15;2.20;;;;;;;12.78;100.00;101260.69;5264026;28;20027;-68
2021/09/29 08:01:11;;;;;;;4.53;2.15;;;;;;;12.81;100.00;101263.03;5267261;28;20028;-68
2021/09/29 08:03:44;;;;;;;4.88;2.25;;;;;;;12.78;100.00;101272.03;5264544;28;20246;-67
2021/09/29 08:06:16;;;;;;;5.85;1.98;;;;;;;12.85;100.00;101286.31;5263207;28;20203;-68
2021/09/29 08:08:49;;;;;;;3.95;1.95;;;;;;;12.86;100.00;101290.59;5264856;28;20031;-68
2021/09/29 08:11:20;;;;;;;5.38;2.20;;;;;;;12.87;100.00;101291.41;5265642;28;20159;-68
2021/09/29 08:13:51;;;;;;;4.68;2.00;;;;;;;12.87;100.00;101294.88;5266570;28;20537;-67
2021/09/29 08:16:23;;;;;;;5.70;2.13;;;;;;;12.91;100.00;101295.44;5265721;28;20025;-67
2021/09/29 08:18:54;;;;;;;5.97;2.42;;;;;;;12.83;100.00;101290.03;5265875;28;20028;-68
2021/09/29 08:21:29;;;;;;;4.63;2.28;;;;;;;12.84;100.00;101294.31;5265241;28;20028;-67
2021/09/29 08:24:10;;;;;;;5.53;2.17;;;;;;;12.85;100.00;101301.25;5264716;28;20025;-66
2021/09/29 08:26:53;;;;;;;6.70;2.00;;;;;;;12.87;100.00;101309.81;5264441;28;20553;-66
2021/09/29 08:32:10;;;;;;;4.22;1.70;;;;;;;12.83;100.00;101317.16;5264813;28;20051;-67
2021/09/29 08:37:49;;;;;;;3.55;1.15;;;;;;;12.73;100.00;101313.66;5266181;28;20044;-67
2021/09/29 08:40:28;;;;;;;3.42;1.13;;;;;;;12.63;100.00;101299.66;5265292;28;20123;-67
2021/09/29 08:45:50;;;;;;;4.95;1.27;;;;;;;12.75;100.00;101316.97;5263301;28;20047;-67
2021/09/29 09:16:11;;;;;;;2.78;0.98;;;;;;;12.45;100.00;101367.75;5263636;28;20017;-66
2021/09/29 09:18:50;;;;;;;3.67;1.02;;;;;;;12.46;100.00;101363.31;5262475;28;20020;-67
2021/09/29 09:21:21;;;;;;;1.98;1.08;;;;;;;12.34;100.00;101363.38;5263668;28;20024;-67
2021/09/29 09:23:52;;;;;;;3.88;1.23;;;;;;;12.31;100.00;101366.28;5264040;28;20024;-67
2021/09/29 09:26:26;;;;;;;3.78;1.00;;;;;;;12.31;100.00;101361.03;5264625;28;20199;-67
2021/09/29 09:29:09;;;;;;;1.98;1.25;;;;;;;12.37;100.00;101365.75;5263431;28;20257;-67
2021/09/29 09:31:42;;;;;;;;;;;;;;;12.58;100.00;101371.00;5261044;28;20152;-66
2021/09/29 09:34:13;;;;;;;2.00;1.15;;;;;;;12.37;100.00;101376.28;5260970;28;19916;-66
2021/09/29 09:36:48;;;;;;;3.35;1.80;;;;;;;12.30;100.00;101369.88;5263077;28;20036;-67
2021/09/29 09:39:23;;;;;;;2.10;1.77;;;;;;;12.32;100.00;101370.59;5262944;28;20307;-66
2021/09/29 09:41:58;;;;;;;5.10;2.00;;;;;;;12.38;100.00;101372.69;5264496;28;20244;-66
2021/09/29 09:44:38;;;;;;;4.05;2.60;;;;;;;12.43;100.00;101374.94;5264117;28;20017;-66
2021/09/29 09:47:16;;;;;;;3.75;2.35;;;;;;;12.42;100.00;101373.25;5263557;28;20059;-67
2021/09/29 09:49:52;;;;;;;3.70;3.10;;;;;;;12.47;100.00;101386.84;5263226;28;20025;-66
2021/09/29 09:52:32;;;;;;;4.32;3.58;;;;;;;12.57;100.00;101394.78;5264079;28;20073;-66
2021/09/29 09:55:06;;;;;;;4.47;3.60;;;;;;;12.59;100.00;101390.25;5263330;28;20029;-67
2021/09/29 09:57:40;;;;;;;5.05;4.43;;;;;;;12.59;100.00;101400.75;5262522;28;20108;-67
2021/09/29 10:00:14;;;;;;;4.50;4.03;;;;;;;12.71;100.00;101404.97;5261818;28;20520;-67
2021/09/29 10:02:47;;;;;;;6.57;5.07;;;;;;;12.75;100.00;101395.84;5263973;28;20036;-66
2021/09/29 10:05:19;;;;;;;5.60;5.00;;;;;;;12.78;100.00;101405.28;5263944;28;20032;-67
2021/09/29 10:07:51;;;;;;;5.60;5.10;;;;;;;12.81;100.00;101405.88;5262947;28;20508;-67
2021/09/29 10:10:38;;;;;;;5.97;4.70;;;;;;;12.93;100.00;101400.53;5260435;28;20154;-67
2021/09/29 10:27:56;;;;;;;5.35;4.15;;;;;;;12.74;100.00;101398.63;5259980;28;20037;-67
2021/09/29 10:30:29;;;;;;;;;;;;;;;13.04;100.00;101405.69;5259065;28;20076;-68
2021/09/29 10:33:03;;;;;;;4.30;3.63;;;;;;;12.76;100.00;101426.44;5263838;28;19909;-68
2021/09/29 10:41:12;;;;;;;3.75;3.30;;;;;;;12.66;100.00;101418.50;5257699;28;20119;-68
2021/09/29 10:44:03;;;;;;;6.07;3.35;;;;;;;12.59;100.00;101417.34;5257384;28;20115;-67
2021/09/29 10:46:41;;;;;;;3.63;2.83;;;;;;;12.54;100.00;101409.03;5255449;28;20025;-68
2021/09/29 10:52:09;;;;;;;4.70;3.40;;;;;;;12.81;100.00;101399.78;5263971;28;20036;-68
2021/09/29 11:31:36;;;;;;;1.13;0.70;;;;;;;12.93;100.00;101505.72;5264143;28;20051;-68
2021/09/29 11:34:10;;;;;;;2.38;0.70;;;;;;;12.65;100.00;101498.34;5265872;28;20059;-67
2021/09/29 12:10:17;;;;;;;4.32;1.30;;;;;;;12.26;100.00;101523.47;5265413;28;20043;-67
2021/09/29 12:12:51;;;;;;;4.53;1.30;;;;;;;12.41;100.00;101526.63;5262542;28;20031;-67
2021/09/29 12:15:23;;;;;;;3.78;1.27;;;;;;;12.55;100.00;101530.78;5263074;28;20242;-67
2021/09/29 12:17:54;;;;;;;5.38;1.70;;;;;;;12.58;100.00;101533.16;5260937;28;20036;-67
2021/09/29 12:20:28;;;;;;;3.05;1.38;;;;;;;12.71;100.00;101536.41;5258488;28;20025;-67
2021/09/29 12:23:01;;;;;;;5.45;2.10;;;;;;;12.88;100.00;101535.03;5248746;28;20305;-67
2021/09/29 12:33:55;;;;;;;4.40;1.70;;;;;;;13.16;100.00;101554.59;5257527;28;20040;-67
2021/09/29 12:36:28;;;;;;;4.95;1.85;;;;;;;13.15;100.00;101550.28;5259349;28;20034;-67
2021/09/29 12:39:01;;;;;;;5.78;1.85;;;;;;;13.22;100.00;101540.06;5259198;28;20087;-67
2021/09/29 12:41:33;;;;;;;4.72;1.70;;;;;;;13.53;100.00;101554.13;5259234;28;20040;-67
2021/09/29 12:44:06;;;;;;;6.40;1.48;;;;;;;13.79;100.00;101559.78;5260206;28;20028;-67
2021/09/29 12:46:38;;;;;;;;;;;;;;;14.08;100.00;101568.56;5260805;28;20024;-67
2021/09/29 12:49:13;;;;;;;5.03;1.25;;;;;;;13.73;100.00;101566.38;5258085;28;19965;-67
2021/09/29 12:51:51;;;;;;;6.97;1.45;;;;;;;13.57;100.00;101584.50;5260671;28;20040;-67
2021/09/29 12:54:24;;;;;;;5.25;1.13;;;;;;;13.43;100.00;101597.97;5265328;28;20029;-67
2021/09/29 12:56:55;;;;;;;;;;;;;;;13.61;100.00;101596.41;5260520;28;20533;-67
2021/09/29 12:59:26;;;;;;;3.53;1.17;;;;;;;13.07;100.00;101584.31;5262227;28;19920;-67
2021/09/29 13:01:58;;;;;;;4.32;1.30;;;;;;;13.10;100.00;101584.03;5258881;28;20151;-67
2021/09/29 13:04:29;;;;;;;4.63;1.10;;;;;;;13.32;100.00;101581.28;5262383;28;20029;-67
2021/09/29 13:07:01;;;;;;;3.50;1.15;;;;;;;13.55;100.00;101573.25;5262698;28;20029;-67
2021/09/29 13:09:32;;;;;;;3.63;1.00;;;;;;;13.85;100.00;101583.75;5263855;28;20035;-67
2021/09/29 13:12:04;;;;;;;3.85;1.08;;;;;;;14.10;100.00;101587.72;5263203;28;20057;-67
2021/09/29 13:14:35;;;;;;;4.22;1.10;;;;;;;14.30;100.00;101590.41;5260406;28;20032;-67
2021/09/29 13:17:06;;;;;;;6.32;1.40;;;;;;;14.24;100.00;101593.56;5262195;28;20028;-67
2021/09/29 13:19:43;;;;;;;3.35;1.08;;;;;;;14.09;100.00;101601.00;5264124;28;20063;-67
2021/09/29 13:22:18;;;;;;;5.25;1.55;;;;;;;13.93;100.00;101605.97;5264640;28;20028;-67
2021/09/29 13:36:34;;;;;;;7.38;1.30;;;;;;;14.48;100.00;101635.41;5263617;28;20096;-67
2021/09/29 13:39:14;;;;;;;4.53;0.70;;;;;;;14.67;100.00;101638.09;5263596;28;20071;-67
2021/09/29 13:41:54;;;;;;;2.78;0.88;;;;;;;14.90;100.00;101638.66;5258449;28;20697;-67
2021/09/29 13:44:26;;;;;;;4.05;0.95;;;;;;;14.93;100.00;101651.56;5258562;28;20516;-67
2021/09/29 13:46:57;;;;;;;5.87;1.00;;;;;;;15.16;100.00;101649.47;5263094;28;20031;-67
2021/09/29 13:49:28;;;;;;;4.93;1.10;;;;;;;15.39;100.00;101642.09;5258392;28;20414;-67
2021/09/29 13:52:00;;;;;;;4.25;0.90;;;;;;;15.51;100.00;101656.78;5262053;28;20657;-67
2021/09/29 13:54:31;;;;;;;6.30;1.27;;;;;;;15.65;100.00;101650.25;5262368;28;20413;-67
2021/09/29 13:57:53;;;;;;;4.60;1.08;;;;;;;15.57;100.00;101653.59;5261697;28;20025;-67
2021/09/29 14:00:03;;;;;;;4.78;0.93;;;;;;;15.50;100.00;101660.41;5248981;28;20083;-67
2021/09/29 14:30:49;;;;;;;4.07;0.65;;;;;;;15.12;100.00;101698.25;5261509;28;20417;-67
2021/09/29 14:35:53;;;;;;;4.07;0.80;;;;;;;14.77;100.00;101707.53;5262772;28;20243;-67
2021/09/29 14:38:24;;;;;;;4.47;0.73;;;;;;;14.63;100.00;101701.81;5262924;28;20017;-67
2021/09/29 14:40:55;;;;;;;6.47;0.93;;;;;;;14.48;100.00;101712.69;5262419;28;20020;-67
2021/09/29 14:43:26;;;;;;;2.28;0.63;;;;;;;14.54;100.00;101727.97;5263784;28;20025;-67